createdAt,value
2018-10-01T00:02:53.203Z,3.13
2018-10-01T00:07:56.353Z,2.80
2018-10-01T00:12:59.757Z,3.00
2018-10-01T00:18:02.954Z,3.13
2018-10-01T00:23:06.227Z,3.13
2018-10-01T00:28:09.436Z,2.60
2018-10-01T00:33:12.584Z,2.67
2018-10-01T00:38:15.936Z,3.03
2018-10-01T00:43:19.292Z,3.10
2018-10-01T00:48:22.443Z,2.80
2018-10-01T00:53:25.590Z,2.90
2018-10-01T00:58:28.735Z,3.27
2018-10-01T01:03:31.860Z,3.20
2018-10-01T01:08:35.041Z,3.10
2018-10-01T01:13:38.212Z,2.93
2018-10-01T01:18:41.426Z,3.02
2018-10-01T01:23:44.521Z,3.08
2018-10-01T01:28:47.688Z,3.07
2018-10-01T01:33:55.247Z,2.80
2018-10-01T01:38:59.533Z,3.30
2018-10-01T01:44:02.667Z,3.67
2018-10-01T01:49:13.638Z,4.33
2018-10-01T01:54:16.772Z,3.77
2018-10-01T01:59:19.980Z,4.23
2018-10-01T02:04:23.300Z,6.27
2018-10-01T02:09:29.048Z,6.20
2018-10-01T02:14:32.216Z,6.63
2018-10-01T02:19:35.368Z,6.87
2018-10-01T02:24:38.462Z,6.47
2018-10-01T02:29:41.584Z,8.27
2018-10-01T02:34:44.741Z,8.67
2018-10-01T02:39:47.928Z,8.30
2018-10-01T02:44:51.148Z,9.47
2018-10-01T02:49:54.280Z,12.43
2018-10-01T02:54:57.442Z,12.63
2018-10-01T03:00:00.633Z,11.53
2018-10-01T03:05:03.799Z,13.67
2018-10-01T03:10:07.082Z,12.77
2018-10-01T03:15:10.278Z,12.23
2018-10-01T03:20:13.395Z,13.60
2018-10-01T03:25:16.519Z,12.90
2018-10-01T03:30:19.671Z,16.10
2018-10-01T03:35:22.930Z,13.97
2018-10-01T03:40:26.157Z,14.33
2018-10-01T03:45:29.288Z,15.93
2018-10-01T03:50:32.403Z,20.27
2018-10-01T03:55:35.651Z,17.67
2018-10-01T04:00:38.835Z,18.87
2018-10-01T04:05:44.092Z,16.67
2018-10-01T04:10:47.645Z,14.37
2018-10-01T04:15:54.294Z,15.00
2018-10-01T04:21:10.468Z,14.87
2018-10-01T04:26:15.271Z,15.43
2018-10-01T04:31:16.961Z,16.80
2018-10-01T04:36:24.634Z,17.43
2018-10-01T04:41:26.738Z,18.80
2018-10-01T04:46:32.512Z,17.90
2018-10-01T04:51:41.764Z,21.12
2018-10-01T04:56:44.855Z,17.90
2018-10-01T05:01:57.119Z,16.73
2018-10-01T05:06:58.370Z,19.60
2018-10-01T05:12:01.838Z,21.70
2018-10-01T05:17:05.211Z,25.23
2018-10-01T05:22:08.398Z,25.43
2018-10-01T05:27:11.625Z,22.67
2018-10-01T05:32:14.754Z,21.20
2018-10-01T05:37:17.855Z,18.97
2018-10-01T05:42:21.037Z,20.43
2018-10-01T05:47:24.182Z,18.90
2018-10-01T05:52:27.337Z,18.97
2018-10-01T05:57:30.481Z,17.63
2018-10-01T06:02:33.599Z,18.70
2018-10-01T06:07:36.849Z,19.33
2018-10-01T06:12:39.980Z,19.43
2018-10-01T06:17:43.168Z,20.00
2018-10-01T06:22:46.295Z,18.40
2018-10-01T06:27:49.422Z,17.27
2018-10-01T06:32:52.614Z,20.60
2018-10-01T06:37:55.868Z,23.03
2018-10-01T06:42:59.007Z,17.80
2018-10-01T06:48:02.202Z,18.33
2018-10-01T06:53:05.923Z,17.83
2018-10-01T06:58:09.106Z,17.47
2018-10-01T07:03:12.297Z,15.03
2018-10-01T07:08:15.482Z,15.33
2018-10-01T07:13:18.728Z,16.63
2018-10-01T07:18:21.890Z,13.10
2018-10-01T07:23:25.179Z,12.13
2018-10-01T07:28:28.269Z,15.57
2018-10-01T07:33:31.391Z,16.33
2018-10-01T07:38:34.593Z,16.33
2018-10-01T07:43:37.937Z,16.60
2018-10-01T07:48:41.438Z,18.33
2018-10-01T07:53:44.666Z,24.12
2018-10-01T07:58:47.810Z,27.25
2018-10-01T08:03:50.985Z,23.30
2018-10-01T08:08:54.161Z,20.13
2018-10-01T08:13:57.346Z,19.63
2018-10-01T08:19:00.522Z,17.00
2018-10-01T08:24:03.852Z,16.17
2018-10-01T08:29:07.034Z,15.13
2018-10-01T08:34:10.314Z,13.77
2018-10-01T08:39:14.792Z,12.70
2018-10-01T08:44:18.297Z,11.87
2018-10-01T08:49:49.362Z,9.63
2018-10-01T08:54:52.516Z,9.73
2018-10-01T08:59:55.670Z,9.07
2018-10-01T09:04:58.883Z,8.23
2018-10-01T09:10:02.057Z,6.60
2018-10-01T09:15:05.554Z,6.37
2018-10-01T09:20:08.910Z,5.30
2018-10-01T09:25:12.021Z,6.67
2018-10-01T09:30:15.214Z,4.63
2018-10-01T09:35:18.417Z,4.57
2018-10-01T09:40:21.634Z,5.67
2018-10-01T09:45:24.834Z,4.80
2018-10-01T09:50:28.363Z,5.23
2018-10-01T09:55:31.442Z,5.37
2018-10-01T10:01:02.578Z,5.03
2018-10-01T10:06:05.947Z,5.80
2018-10-01T10:11:09.381Z,6.80
2018-10-01T10:16:12.729Z,6.00
2018-10-01T10:21:15.724Z,5.10
2018-10-01T10:26:18.936Z,5.03
2018-10-01T10:31:22.053Z,4.77
2018-10-01T10:36:25.242Z,5.33
2018-10-01T10:41:28.399Z,5.60
2018-10-01T10:46:31.639Z,4.80
2018-10-01T10:51:35.311Z,4.27
2018-10-01T10:56:38.506Z,3.50
2018-10-01T11:01:41.676Z,2.33
2018-10-01T11:06:44.772Z,2.10
2018-10-01T11:11:47.932Z,2.10
2018-10-01T11:16:51.006Z,2.07
2018-10-01T11:21:54.153Z,2.10
2018-10-01T11:26:57.265Z,1.37
2018-10-01T11:32:00.506Z,1.57
2018-10-01T11:37:03.524Z,1.37
2018-10-01T11:42:06.689Z,1.20
2018-10-01T11:47:09.854Z,1.37
2018-10-01T11:52:12.993Z,1.50
2018-10-01T11:57:16.211Z,1.25
2018-10-01T12:02:19.332Z,1.00
2018-10-01T12:07:22.537Z,1.10
2018-10-01T12:12:25.690Z,1.35
2018-10-01T12:17:29.068Z,1.02
2018-10-01T12:22:32.220Z,1.00
2018-10-01T12:27:35.392Z,0.93
2018-10-01T12:32:38.459Z,1.07
2018-10-01T12:37:41.603Z,1.47
2018-10-01T12:42:44.714Z,1.47
2018-10-01T12:47:47.785Z,1.10
2018-10-01T12:52:51.039Z,0.85
2018-10-01T12:57:54.160Z,0.80
2018-10-01T13:02:57.297Z,1.15
2018-10-01T13:08:01.150Z,1.07
2018-10-01T13:13:04.280Z,1.00
2018-10-01T13:18:07.427Z,1.10
2018-10-01T13:23:10.535Z,1.20
2018-10-01T13:28:13.620Z,0.98
2018-10-01T13:33:16.774Z,0.78
2018-10-01T13:38:20.170Z,0.95
2018-10-01T13:43:23.321Z,1.15
2018-10-01T13:48:26.500Z,0.80
2018-10-01T13:53:29.630Z,0.70
2018-10-01T13:58:32.817Z,1.40
2018-10-01T14:03:35.949Z,1.00
2018-10-01T14:08:39.081Z,0.80
2018-10-01T14:13:42.192Z,0.80
2018-10-01T14:18:45.302Z,0.57
2018-10-01T14:23:48.404Z,0.50
2018-10-01T14:28:51.541Z,0.83
2018-10-01T14:33:54.676Z,0.80
2018-10-01T14:38:57.782Z,0.57
2018-10-01T14:44:00.922Z,0.60
2018-10-01T14:49:04.119Z,0.70
2018-10-01T14:54:07.360Z,0.90
2018-10-01T14:59:11.211Z,0.90
2018-10-01T15:04:14.352Z,0.93
2018-10-01T15:09:17.481Z,1.20
2018-10-01T15:14:20.595Z,1.10
2018-10-01T15:19:23.741Z,1.00
2018-10-01T15:24:26.922Z,1.10
2018-10-01T15:29:30.035Z,0.90
2018-10-01T15:34:33.175Z,1.23
2018-10-01T15:39:36.290Z,1.00
2018-10-01T15:44:39.385Z,0.70
2018-10-01T15:49:42.661Z,0.90
2018-10-01T15:54:46.041Z,1.10
2018-10-01T15:59:49.182Z,0.87
2018-10-01T16:04:52.311Z,0.90
2018-10-01T16:09:55.477Z,1.20
2018-10-01T16:14:58.598Z,1.00
2018-10-01T16:20:01.731Z,1.73
2018-10-01T16:25:05.050Z,0.80
2018-10-01T16:30:08.602Z,0.77
2018-10-01T16:35:11.912Z,1.20
2018-10-01T16:40:15.138Z,1.00
2018-10-01T16:45:18.272Z,0.97
2018-10-01T16:50:21.430Z,0.90
2018-10-01T16:55:24.560Z,1.70
2018-10-01T17:00:27.733Z,1.53
2018-10-01T17:05:30.875Z,1.90
2018-10-01T17:10:33.988Z,1.63
2018-10-01T17:15:37.102Z,2.27
2018-10-01T17:20:40.252Z,1.60
2018-10-01T17:25:43.412Z,1.53
2018-10-01T17:30:46.535Z,1.80
2018-10-01T17:35:49.668Z,1.80
2018-10-01T17:40:52.816Z,1.97
2018-10-01T17:45:55.894Z,1.90
2018-10-01T17:50:59.005Z,1.50
2018-10-01T17:56:02.145Z,1.87
2018-10-01T18:01:05.260Z,1.72
2018-10-01T18:06:08.499Z,2.30
2018-10-01T18:11:11.578Z,2.17
2018-10-01T18:16:14.694Z,2.00
2018-10-01T18:21:17.798Z,2.43
2018-10-01T18:26:20.909Z,1.37
2018-10-01T18:31:24.108Z,1.77
2018-10-01T18:36:27.302Z,1.40
2018-10-01T18:41:30.452Z,1.43
2018-10-01T18:46:33.565Z,2.07
2018-10-01T18:51:36.669Z,2.15
2018-10-01T18:56:39.817Z,1.85
2018-10-01T19:01:42.994Z,1.83
2018-10-01T19:06:46.116Z,1.50
2018-10-01T19:11:49.251Z,1.80
2018-10-01T19:16:52.362Z,2.10
2018-10-01T19:21:55.915Z,1.60
2018-10-01T19:26:59.112Z,1.47
2018-10-01T19:32:02.211Z,2.27
2018-10-01T19:37:05.281Z,2.30
2018-10-01T19:42:08.491Z,2.70
2018-10-01T19:47:11.662Z,1.80
2018-10-01T19:52:14.723Z,1.93
2018-10-01T19:57:17.841Z,2.20
2018-10-01T20:02:20.952Z,2.13
2018-10-01T20:07:24.079Z,2.83
2018-10-01T20:12:27.197Z,2.20
2018-10-01T20:17:30.423Z,2.47
2018-10-01T20:22:36.652Z,2.03
2018-10-01T20:27:39.851Z,3.00
2018-10-01T20:32:42.936Z,2.83
2018-10-01T20:37:46.141Z,3.15
2018-10-01T20:42:49.353Z,2.50
2018-10-01T20:47:52.699Z,3.00
2018-10-01T20:52:55.882Z,2.87
2018-10-01T20:57:58.881Z,2.67
2018-10-01T21:03:02.019Z,1.73
2018-10-01T21:08:05.218Z,2.63
2018-10-01T21:13:08.320Z,2.03
2018-10-01T21:18:11.508Z,2.33
2018-10-01T21:23:14.639Z,2.77
2018-10-01T21:28:17.715Z,2.53
2018-10-01T21:33:20.915Z,2.50
2018-10-01T21:38:24.064Z,2.73
2018-10-01T21:43:27.191Z,3.17
2018-10-01T21:48:30.312Z,2.70
2018-10-01T21:53:33.505Z,3.65
2018-10-01T21:58:36.628Z,2.97
2018-10-01T22:03:39.720Z,3.90
2018-10-01T22:08:43.186Z,3.90
2018-10-01T22:13:46.363Z,3.60
2018-10-01T22:18:49.480Z,4.00
2018-10-01T22:23:55.330Z,4.07
2018-10-01T22:28:58.460Z,3.67
2018-10-01T22:34:01.633Z,3.80
2018-10-01T22:39:05.492Z,5.00
2018-10-01T22:44:08.776Z,6.60
2018-10-01T22:49:11.972Z,7.13
2018-10-01T22:54:15.514Z,5.30
2018-10-01T22:59:18.574Z,7.23
2018-10-01T23:04:21.684Z,6.67
2018-10-01T23:09:24.813Z,7.27
2018-10-01T23:14:27.925Z,7.00
2018-10-01T23:19:31.035Z,6.07
2018-10-01T23:24:34.194Z,6.10
2018-10-01T23:29:37.351Z,5.23
2018-10-01T23:34:40.435Z,6.78
2018-10-01T23:39:43.583Z,5.50
2018-10-01T23:44:46.701Z,5.47
2018-10-01T23:49:49.851Z,7.35
2018-10-01T23:54:58.256Z,6.57
